^^
Saratoga-Weather Station Historical Data
Daily Summary for February 11, 2020 Units:  Metric    English   Both
Daily Weekly Monthly Yearly Custom
  High: Low: Average:
Temperature: 22.8 °C 11.1 °C 17.8 °C
Dew Point: 12.1 °C 6.5 °C 9.2 °C
Humidity: 89% 37% 60%
Wind Speed: 13km/h 0km/h 3.3km/h
Wind Gust: 17.7km/h - -
Wind- - WSW
Pressure: 1024.0 hPa 1018.0 hPa -
Precipitation: 0.0 mm    
Historical Graphs
 
 
Tabular Data for February 11, 2020
Time Temperature Dew Point Pressure Wind Wind Speed Wind Gust Humidity Rainfall Rate (Hourly) solar
00:03 17.2 °C 12.1 °C 1018.0 hPa NW 4.7 km/h 4.8 km/h 72% 0.0 mm 0 W/m2
00:08 17.1 °C 11.8 °C 1018.0 hPa NNW 9.7 km/h 9.7 km/h 71% 0.0 mm 0 W/m2
00:13 17 °C 11.7 °C 1018.0 hPa NNE 1.4 km/h 3.2 km/h 71% 0.0 mm 0 W/m2
00:18 16.9 °C 11.6 °C 1018.0 hPa NW 7.9 km/h 12.9 km/h 71% 0.0 mm 0 W/m2
00:23 16.9 °C 11.8 °C 1018.3 hPa WNW 3.2 km/h 4.8 km/h 72% 0.0 mm 0 W/m2
00:28 16.9 °C 11.6 °C 1018.3 hPa NNW 4.7 km/h 9.7 km/h 71% 0.0 mm 0 W/m2
00:38 16.8 °C 11.5 °C 1018.3 hPa West 6.4 km/h 9.7 km/h 71% 0.0 mm 0 W/m2
00:43 16.7 °C 11.4 °C 1018.6 hPa WSW 7.9 km/h 12.9 km/h 71% 0.0 mm 0 W/m2
00:48 16.7 °C 11.4 °C 1018.6 hPa West 3.2 km/h 6.4 km/h 71% 0.0 mm 0 W/m2
00:53 16.7 °C 11.4 °C 1018.6 hPa NW 3.2 km/h 12.9 km/h 71% 0.0 mm 0 W/m2
00:58 16.6 °C 11.3 °C 1018.6 hPa West 3.2 km/h 6.4 km/h 71% 0.0 mm 0 W/m2
01:03 16.6 °C 11.3 °C 1018.6 hPa NW 6.4 km/h 9.7 km/h 71% 0.0 mm 0 W/m2
01:08 16.6 °C 11.3 °C 1018.6 hPa WNW 1.4 km/h 6.4 km/h 71% 0.0 mm 0 W/m2
01:13 16.5 °C 11.4 °C 1018.6 hPa WNW 7.9 km/h 9.7 km/h 72% 0.0 mm 0 W/m2
01:19 16.4 °C 11.3 °C 1018.6 hPa West 6.4 km/h 9.7 km/h 72% 0.0 mm 0 W/m2
01:24 16.4 °C 11.3 °C 1018.6 hPa NW 3.2 km/h 11.3 km/h 72% 0.0 mm 0 W/m2
01:29 16.3 °C 11.5 °C 1019.0 hPa West 4.7 km/h 9.7 km/h 73% 0.0 mm 0 W/m2
01:34 16.2 °C 11.6 °C 1019.0 hPa WNW 9.7 km/h 9.7 km/h 74% 0.0 mm 0 W/m2
01:39 16.1 °C 11.7 °C 1019.0 hPa WSW 6.4 km/h 11.3 km/h 75% 0.0 mm 0 W/m2
01:44 15.9 °C 11.7 °C 1019.0 hPa WNW 6.4 km/h 8 km/h 76% 0.0 mm 0 W/m2
01:49 15.8 °C 11.6 °C 1019.0 hPa WSW 7.9 km/h 11.3 km/h 76% 0.0 mm 0 W/m2
01:54 15.8 °C 11.6 °C 1019.0 hPa WNW 3.2 km/h 8 km/h 76% 0.0 mm 0 W/m2
01:59 15.7 °C 11.5 °C 1019.0 hPa NW 3.2 km/h 6.4 km/h 76% 0.0 mm 0 W/m2
02:04 15.6 °C 11.6 °C 1019.0 hPa WNW 6.4 km/h 9.7 km/h 77% 0.0 mm 0 W/m2
02:09 15.4 °C 11.4 °C 1019.0 hPa West 11.1 km/h 11.3 km/h 77% 0.0 mm 0 W/m2
02:14 15.3 °C 11.3 °C 1019.3 hPa WNW 6.4 km/h 8 km/h 77% 0.0 mm 0 W/m2
02:19 15.2 °C 11.4 °C 1019.3 hPa West 3.2 km/h 6.4 km/h 78% 0.0 mm 0 W/m2
02:24 15.1 °C 11.3 °C 1019.3 hPa WNW 4.7 km/h 6.4 km/h 78% 0.0 mm 0 W/m2
02:29 14.8 °C 11 °C 1019.6 hPa West 3.2 km/h 6.4 km/h 78% 0.0 mm 0 W/m2
02:34 14.7 °C 10.9 °C 1019.6 hPa West 6.4 km/h 9.7 km/h 78% 0.0 mm 0 W/m2
02:39 14.6 °C 10.8 °C 1019.6 hPa West 4.7 km/h 6.4 km/h 78% 0.0 mm 0 W/m2
02:44 14.6 °C 10.8 °C 1019.6 hPa WSW 6.4 km/h 6.4 km/h 78% 0.0 mm 0 W/m2
02:49 14.4 °C 10.6 °C 1019.6 hPa WSW 4.7 km/h 4.8 km/h 78% 0.0 mm 0 W/m2
02:54 14.4 °C 10.8 °C 1019.6 hPa WNW 1.4 km/h 4.8 km/h 79% 0.0 mm 0 W/m2
02:59 14.3 °C 10.7 °C 1019.6 hPa WSW 1.4 km/h 8 km/h 79% 0.0 mm 0 W/m2
03:05 14.2 °C 10.8 °C 1019.6 hPa West 3.2 km/h 3.2 km/h 80% 0.0 mm 0 W/m2
03:10 14.1 °C 10.7 °C 1019.6 hPa West 1.4 km/h 8 km/h 80% 0.0 mm 0 W/m2
03:15 13.9 °C 10.5 °C 1019.6 hPa West 4.7 km/h 4.8 km/h 80% 0.0 mm 0 W/m2
03:20 13.8 °C 10.4 °C 1019.6 hPa West 4.7 km/h 6.4 km/h 80% 0.0 mm 0 W/m2
03:25 13.7 °C 10.5 °C 1019.6 hPa West 4.7 km/h 6.4 km/h 81% 0.0 mm 0 W/m2
03:30 13.6 °C 10.2 °C 1019.6 hPa West 3.2 km/h 4.8 km/h 80% 0.0 mm 0 W/m2
03:35 13.6 °C 10.2 °C 1019.6 hPa West 3.2 km/h 6.4 km/h 80% 0.0 mm 0 W/m2
03:40 13.6 °C 10.2 °C 1019.6 hPa WNW 4.7 km/h 6.4 km/h 80% 0.0 mm 0 W/m2
03:45 13.4 °C 10 °C 1019.6 hPa West 3.2 km/h 6.4 km/h 80% 0.0 mm 0 W/m2
03:50 13.4 °C 10 °C 1019.6 hPa West 3.2 km/h 3.2 km/h 80% 0.0 mm 0 W/m2
03:55 13.3 °C 9.9 °C 1019.6 hPa West 3.2 km/h 6.4 km/h 80% 0.0 mm 0 W/m2
04:00 13.2 °C 9.8 °C 1019.6 hPa West 3.2 km/h 4.8 km/h 80% 0.0 mm 0 W/m2
04:05 13.2 °C 9.8 °C 1019.6 hPa West 4.7 km/h 9.7 km/h 80% 0.0 mm 0 W/m2
04:10 13.3 °C 9.7 °C 1019.6 hPa West 3.2 km/h 4.8 km/h 79% 0.0 mm 0 W/m2
04:15 13.3 °C 9.7 °C 1019.6 hPa West 1.4 km/h 6.4 km/h 79% 0.0 mm 0 W/m2
04:20 13.2 °C 9.8 °C 1019.6 hPa West 3.2 km/h 6.4 km/h 80% 0.0 mm 0 W/m2
04:25 13.2 °C 9.8 °C 1019.6 hPa Calm   9.7 km/h 80% 0.0 mm 0 W/m2
04:30 13.1 °C 9.7 °C 1019.6 hPa West 3.2 km/h 3.2 km/h 80% 0.0 mm 0 W/m2
04:35 12.9 °C 9.5 °C 1019.6 hPa Calm   3.2 km/h 80% 0.0 mm 0 W/m2
04:40 12.8 °C 9.6 °C 1019.6 hPa Calm     81% 0.0 mm 0 W/m2
04:45 12.7 °C 9.5 °C 1019.6 hPa Calm     81% 0.0 mm 0 W/m2
04:50 12.5 °C 9.3 °C 1019.6 hPa Calm     81% 0.0 mm 0 W/m2
04:55 12.3 °C 9.3 °C 1019.6 hPa Calm     82% 0.0 mm 0 W/m2
05:00 12.2 °C 9.4 °C 1019.6 hPa WSW 1.4 km/h 3.2 km/h 83% 0.0 mm 0 W/m2
05:05 11.9 °C 9.1 °C 1020.0 hPa WSW 1.4 km/h 1.6 km/h 83% 0.0 mm 0 W/m2
05:10 11.9 °C 9.3 °C 1019.6 hPa Calm   3.2 km/h 84% 0.0 mm 0 W/m2
05:15 11.7 °C 9.3 °C 1020.0 hPa WSW 1.4 km/h 1.6 km/h 85% 0.0 mm 0 W/m2
05:20 11.7 °C 9.3 °C 1020.0 hPa Calm   3.2 km/h 85% 0.0 mm 0 W/m2
05:25 11.6 °C 9.3 °C 1020.0 hPa WSW 1.4 km/h 1.6 km/h 86% 0.0 mm 0 W/m2
05:30 11.4 °C 9.1 °C 1020.0 hPa Calm     86% 0.0 mm 0 W/m2
05:35 11.3 °C 9.2 °C 1020.0 hPa Calm     87% 0.0 mm 0 W/m2
05:40 11.2 °C 9.1 °C 1020.3 hPa Calm   1.6 km/h 87% 0.0 mm 0 W/m2
05:45 11.2 °C 9.1 °C 1020.3 hPa WSW 1.4 km/h 3.2 km/h 87% 0.0 mm 5 W/m2
05:50 11.2 °C 9.3 °C 1020.3 hPa Calm   1.6 km/h 88% 0.0 mm 5 W/m2
05:55 11.1 °C 9.2 °C 1020.3 hPa Calm     88% 0.0 mm 9 W/m2
06:00 11.1 °C 9.2 °C 1020.3 hPa Calm     88% 0.0 mm 11 W/m2
06:05 11.1 °C 9.4 °C 1020.7 hPa Calm   1.6 km/h 89% 0.0 mm 12 W/m2
06:10 11.1 °C 9.4 °C 1020.7 hPa Calm     89% 0.0 mm 14 W/m2
06:15 11.1 °C 9.4 °C 1020.7 hPa Calm   1.6 km/h 89% 0.0 mm 16 W/m2
06:20 11.1 °C 9.4 °C 1020.7 hPa Calm     89% 0.0 mm 18 W/m2
06:25 11.1 °C 9.4 °C 1020.7 hPa WSW 1.4 km/h 1.6 km/h 89% 0.0 mm 19 W/m2
06:30 11.3 °C 9.6 °C 1020.7 hPa Calm     89% 0.0 mm 21 W/m2
06:35 11.5 °C 9.7 °C 1020.7 hPa WSW 1.4 km/h 3.2 km/h 89% 0.0 mm 23 W/m2
06:40 11.7 °C 9.9 °C 1020.7 hPa WSW 1.4 km/h 3.2 km/h 89% 0.0 mm 25 W/m2
06:45 11.9 °C 10 °C 1020.7 hPa Calm   1.6 km/h 88% 0.0 mm 25 W/m2
06:50 12.1 °C 10.2 °C 1021.0 hPa WSW 1.4 km/h 3.2 km/h 88% 0.0 mm 26 W/m2
06:55 12.3 °C 10.2 °C 1021.0 hPa Calm   3.2 km/h 87% 0.0 mm 28 W/m2
07:00 12.4 °C 10.1 °C 1021.0 hPa West 3.2 km/h 4.8 km/h 86% 0.0 mm 28 W/m2
07:05 12.7 °C 10.2 °C 1021.0 hPa Calm   3.2 km/h 85% 0.0 mm 30 W/m2
07:10 12.8 °C 10.3 °C 1021.0 hPa West 3.2 km/h 4.8 km/h 85% 0.0 mm 32 W/m2
07:15 13 °C 10.4 °C 1021.3 hPa Calm     84% 0.0 mm 32 W/m2
07:20 13.1 °C 10.3 °C 1021.3 hPa NW 3.2 km/h 3.2 km/h 83% 0.0 mm 33 W/m2
07:25 13.2 °C 10.4 °C 1021.3 hPa Calm     83% 0.0 mm 33 W/m2
07:30 13.3 °C 10.5 °C 1021.3 hPa NW 1.4 km/h 3.2 km/h 83% 0.0 mm 35 W/m2
07:35 13.4 °C 10.4 °C 1021.3 hPa Calm   1.6 km/h 82% 0.0 mm 35 W/m2
07:40 13.5 °C 10.5 °C 1021.3 hPa North 1.4 km/h 3.2 km/h 82% 0.0 mm 37 W/m2
07:45 13.6 °C 10.4 °C 1021.3 hPa ESE 3.2 km/h 4.8 km/h 81% 0.0 mm 37 W/m2
07:50 13.7 °C 10.5 °C 1021.3 hPa Calm   1.6 km/h 81% 0.0 mm 53 W/m2
07:55 13.9 °C 10.5 °C 1021.3 hPa Calm   3.2 km/h 80% 0.0 mm 234 W/m2
08:00 14.1 °C 10.5 °C 1021.7 hPa NW 6.4 km/h 8 km/h 79% 0.0 mm 250 W/m2
08:05 14.3 °C 10.5 °C 1021.7 hPa ESE 1.4 km/h 1.6 km/h 78% 0.0 mm 264 W/m2
08:10 14.7 °C 10.9 °C 1021.7 hPa East 8 km/h 8 km/h 78% 0.0 mm 278 W/m2
08:15 15 °C 11 °C 1021.7 hPa Calm   3.2 km/h 77% 0.0 mm 290 W/m2
08:20 15.3 °C 11.1 °C 1022.0 hPa SSW 1.4 km/h 8 km/h 76% 0.0 mm 279 W/m2
08:25 15.5 °C 10.9 °C 1022.0 hPa Calm   6.4 km/h 74% 0.0 mm 169 W/m2
08:30 15.7 °C 10.9 °C 1022.0 hPa South 1.4 km/h 6.4 km/h 73% 0.0 mm 74 W/m2
08:35 15.7 °C 10.9 °C 1022.0 hPa NW 1.4 km/h 8 km/h 73% 0.0 mm 51 W/m2
08:40 16 °C 11.2 °C 1022.0 hPa ENE 6.4 km/h 6.4 km/h 73% 0.0 mm 51 W/m2
08:45 16.2 °C 11.1 °C 1022.0 hPa Calm   4.8 km/h 72% 0.0 mm 51 W/m2
08:50 16.3 °C 11 °C 1022.0 hPa NNW 1.4 km/h 4.8 km/h 71% 0.0 mm 49 W/m2
08:55 16.4 °C 11.1 °C 1022.0 hPa East 4.7 km/h 4.8 km/h 71% 0.0 mm 49 W/m2
09:00 16.6 °C 11.1 °C 1022.4 hPa ENE 1.4 km/h 8 km/h 70% 0.0 mm 47 W/m2
09:05 16.8 °C 11.1 °C 1022.4 hPa East 3.2 km/h 9.7 km/h 69% 0.0 mm 47 W/m2
09:10 16.9 °C 11.4 °C 1022.4 hPa ESE 1.4 km/h 3.2 km/h 70% 0.0 mm 47 W/m2
09:15 17.1 °C 11.4 °C 1022.4 hPa Calm   9.7 km/h 69% 0.0 mm 141 W/m2
09:20 17.2 °C 11.2 °C 1022.4 hPa ESE 3.2 km/h 6.4 km/h 68% 0.0 mm 357 W/m2
09:25 17.3 °C 11.3 °C 1022.4 hPa Calm   6.4 km/h 68% 0.0 mm 441 W/m2
09:30 17.4 °C 11.4 °C 1022.4 hPa NW 1.4 km/h 8 km/h 68% 0.0 mm 499 W/m2
09:35 17.6 °C 11.4 °C 1022.4 hPa NNW 3.2 km/h 4.8 km/h 67% 0.0 mm 515 W/m2
09:40 17.8 °C 11.4 °C 1022.4 hPa East 1.4 km/h 8 km/h 66% 0.0 mm 534 W/m2
09:45 17.8 °C 11.1 °C 1022.4 hPa Calm   4.8 km/h 65% 0.0 mm 506 W/m2
09:50 17.9 °C 11.2 °C 1022.0 hPa NE 3.2 km/h 8 km/h 65% 0.0 mm 585 W/m2
09:55 18.1 °C 11.4 °C 1022.4 hPa NNW 4.7 km/h 6.4 km/h 65% 0.0 mm 636 W/m2
10:00 18.2 °C 11 °C 1022.4 hPa West 4.7 km/h 6.4 km/h 63% 0.0 mm 635 W/m2
10:05 18.3 °C 11.1 °C 1022.4 hPa West 1.4 km/h 4.8 km/h 63% 0.0 mm 675 W/m2
10:10 18.3 °C 11.1 °C 1022.4 hPa Calm   3.2 km/h 63% 0.0 mm 636 W/m2
10:15 18.4 °C 11 °C 1022.4 hPa South 1.4 km/h 6.4 km/h 62% 0.0 mm 197 W/m2
10:20 18.8 °C 10.9 °C 1022.4 hPa Calm   4.8 km/h 60% 0.0 mm 689 W/m2
10:25 18.6 °C 10.4 °C 1022.4 hPa WSW 3.2 km/h 9.7 km/h 59% 0.0 mm 740 W/m2
10:30 18.6 °C 10.4 °C 1022.4 hPa NW 3.2 km/h 14.5 km/h 59% 0.0 mm 675 W/m2
10:35 18.6 °C 10.4 °C 1022.4 hPa North 1.4 km/h 1.6 km/h 59% 0.0 mm 195 W/m2
10:40 18.6 °C 9.6 °C 1022.4 hPa NNW 4.7 km/h 9.7 km/h 56% 0.0 mm 132 W/m2
10:45 18.4 °C 9.7 °C 1022.4 hPa ESE 1.4 km/h 4.8 km/h 57% 0.0 mm 786 W/m2
10:50 18.5 °C 10.1 °C 1022.4 hPa WNW 1.4 km/h 8 km/h 58% 0.0 mm 786 W/m2
10:55 18.7 °C 10.3 °C 1022.4 hPa Calm   4.8 km/h 58% 0.0 mm 163 W/m2
11:00 18.5 °C 9.3 °C 1022.4 hPa NNW 6.4 km/h 6.4 km/h 55% 0.0 mm 118 W/m2
11:05 18.4 °C 9.5 °C 1022.4 hPa NE 4.7 km/h 4.8 km/h 56% 0.0 mm 805 W/m2
11:10 18.7 °C 9.2 °C 1022.4 hPa ESE 1.4 km/h 3.2 km/h 54% 0.0 mm 840 W/m2
11:15 19 °C 9.5 °C 1022.4 hPa NE 6.4 km/h 8 km/h 54% 0.0 mm 905 W/m2
11:20 19.3 °C 8.9 °C 1022.7 hPa WNW 6.4 km/h 8 km/h 51% 0.0 mm 220 W/m2
11:26 19.2 °C 9.1 °C 1022.7 hPa North 1.4 km/h 3.2 km/h 52% 0.0 mm 288 W/m2
11:31 19.4 °C 9.3 °C 1022.7 hPa NNW 4.7 km/h 9.7 km/h 52% 0.0 mm 396 W/m2
11:36 19.4 °C 9 °C 1022.7 hPa NE 4.7 km/h 4.8 km/h 51% 0.0 mm 279 W/m2
11:41 19.4 °C 9.3 °C 1022.7 hPa West 4.7 km/h 9.7 km/h 52% 0.0 mm 939 W/m2
11:46 19.6 °C 9.8 °C 1022.7 hPa NW 3.2 km/h 9.7 km/h 53% 0.0 mm 933 W/m2
11:51 19.8 °C 8.5 °C 1022.7 hPa NW 4.7 km/h 8 km/h 48% 0.0 mm 255 W/m2
11:56 19.6 °C 8.6 °C 1022.7 hPa West 1.4 km/h 6.4 km/h 49% 0.0 mm 285 W/m2
12:01 19.7 °C 8.1 °C 1022.7 hPa West 4.7 km/h 12.9 km/h 47% 0.0 mm 251 W/m2
12:06 19.4 °C 8.4 °C 1022.7 hPa NNW 3.2 km/h 6.4 km/h 49% 0.0 mm 206 W/m2
12:11 19.2 °C 8.2 °C 1023.0 hPa WSW 3.2 km/h 6.4 km/h 49% 0.0 mm 200 W/m2
12:16 19.2 °C 8.2 °C 1023.0 hPa NNE 6.4 km/h 11.3 km/h 49% 0.0 mm 951 W/m2
12:21 19.8 °C 8.8 °C 1022.7 hPa West 3.2 km/h 9.7 km/h 49% 0.0 mm 986 W/m2
12:26 20 °C 8.7 °C 1022.7 hPa WSW 6.4 km/h 11.3 km/h 48% 0.0 mm 942 W/m2
12:31 20 °C 8 °C 1023.0 hPa NW 4.7 km/h 8 km/h 46% 0.0 mm 185 W/m2
12:36 19.6 °C 8 °C 1022.7 hPa NW 3.2 km/h 6.4 km/h 47% 0.0 mm 195 W/m2
12:41 19.3 °C 7.4 °C 1022.7 hPa West 3.2 km/h 4.8 km/h 46% 0.0 mm 311 W/m2
12:46 19.6 °C 8 °C 1022.7 hPa West 3.2 km/h 4.8 km/h 47% 0.0 mm 1020 W/m2
12:51 20 °C 8.3 °C 1022.7 hPa WNW 4.7 km/h 11.3 km/h 47% 0.0 mm 1007 W/m2
12:56 20.4 °C 8.4 °C 1022.7 hPa ENE 3.2 km/h 12.9 km/h 46% 0.0 mm 1046 W/m2
13:02 20.8 °C 7.8 °C 1022.7 hPa WNW 3.2 km/h 8 km/h 43% 0.0 mm 1044 W/m2
13:12 20.6 °C 7.6 °C 1022.7 hPa WSW 6.4 km/h 9.7 km/h 43% 0.0 mm 281 W/m2
13:17 20.5 °C 7.8 °C 1022.7 hPa West 9.7 km/h 17.7 km/h 44% 0.0 mm 1129 W/m2
13:22 20.8 °C 8.8 °C 1022.7 hPa WSW 7.9 km/h 12.9 km/h 46% 0.0 mm 1121 W/m2
13:27 21.1 °C 8 °C 1022.7 hPa NNW 4.7 km/h 16.1 km/h 43% 0.0 mm 1092 W/m2
13:32 21.2 °C 8.8 °C 1022.7 hPa West 4.7 km/h 12.9 km/h 45% 0.0 mm 1034 W/m2
13:37 21.7 °C 8.9 °C 1022.7 hPa NE 1.4 km/h 6.4 km/h 44% 0.0 mm 1037 W/m2
13:42 21.7 °C 8.2 °C 1022.7 hPa WNW 9.7 km/h 9.7 km/h 42% 0.0 mm 1079 W/m2
13:47 21.3 °C 7.9 °C 1022.7 hPa South 1.4 km/h 4.8 km/h 42% 0.0 mm 355 W/m2
13:52 21 °C 7.9 °C 1022.7 hPa WSW 4.7 km/h 11.3 km/h 43% 0.0 mm 309 W/m2
13:57 20.9 °C 7.9 °C 1022.7 hPa NW 6.4 km/h 8 km/h 43% 0.0 mm 408 W/m2
14:02 21 °C 8.3 °C 1022.7 hPa West 6.4 km/h 11.3 km/h 44% 0.0 mm 1139 W/m2
14:07 21 °C 8.3 °C 1022.7 hPa NNW 1.4 km/h 6.4 km/h 44% 0.0 mm 1072 W/m2
14:12 21.1 °C 8.4 °C 1022.7 hPa SE 7.9 km/h 8 km/h 44% 0.0 mm 1023 W/m2
14:17 21.6 °C 8.5 °C 1022.7 hPa East 3.2 km/h 6.4 km/h 43% 0.0 mm 1039 W/m2
14:22 21.9 °C 8.1 °C 1022.7 hPa WNW 3.2 km/h 6.4 km/h 41% 0.0 mm 1139 W/m2
14:27 21.9 °C 7.7 °C 1022.7 hPa WNW 4.7 km/h 9.7 km/h 40% 0.0 mm 241 W/m2
14:32 21.3 °C 8.2 °C 1022.7 hPa NW 6.4 km/h 6.4 km/h 43% 0.0 mm 200 W/m2
14:37 20.8 °C 8.1 °C 1022.7 hPa North 4.7 km/h 11.3 km/h 44% 0.0 mm 185 W/m2
14:42 20.7 °C 8 °C 1022.7 hPa West 3.2 km/h 4.8 km/h 44% 0.0 mm 229 W/m2
14:47 20.6 °C 7.6 °C 1022.7 hPa NW 1.4 km/h 4.8 km/h 43% 0.0 mm 311 W/m2
14:53 20.7 °C 8.3 °C 1022.7 hPa NW 4.7 km/h 9.7 km/h 45% 0.0 mm 1093 W/m2
14:58 21.2 °C 8.1 °C 1022.7 hPa NNW 3.2 km/h 11.3 km/h 43% 0.0 mm 1090 W/m2
15:03 21.7 °C 8.9 °C 1022.7 hPa NNE 3.2 km/h 3.2 km/h 44% 0.0 mm 1111 W/m2
15:08 22 °C 8.1 °C 1023.0 hPa NNW 7.9 km/h 14.5 km/h 41% 0.0 mm 264 W/m2
15:13 21.5 °C 8 °C 1022.7 hPa NNW 3.2 km/h 9.7 km/h 42% 0.0 mm 262 W/m2
15:18 21.2 °C 8.1 °C 1023.0 hPa WSW 13 km/h 14.5 km/h 43% 0.0 mm 288 W/m2
15:23 20.9 °C 8.2 °C 1023.0 hPa SW 1.4 km/h 9.7 km/h 44% 0.0 mm 397 W/m2
15:28 21.2 °C 8.5 °C 1023.0 hPa WNW 3.2 km/h 6.4 km/h 44% 0.0 mm 905 W/m2
15:33 21.7 °C 8.6 °C 1023.0 hPa WNW 4.7 km/h 9.7 km/h 43% 0.0 mm 963 W/m2
15:38 21.9 °C 8.1 °C 1023.0 hPa West 6.4 km/h 12.9 km/h 41% 0.0 mm 1004 W/m2
15:43 21.8 °C 8 °C 1023.0 hPa NNW 3.2 km/h 4.8 km/h 41% 0.0 mm 243 W/m2
15:48 21.6 °C 8.5 °C 1022.7 hPa NW 6.4 km/h 6.4 km/h 43% 0.0 mm 278 W/m2
15:53 21.4 °C 8.3 °C 1023.0 hPa WSW 3.2 km/h 11.3 km/h 43% 0.0 mm 369 W/m2
15:58 21.3 °C 8.2 °C 1023.0 hPa WSW 11.1 km/h 11.3 km/h 43% 0.0 mm 376 W/m2
16:03 21.1 °C 8 °C 1022.7 hPa West 9.7 km/h 12.9 km/h 43% 0.0 mm 424 W/m2
16:08 21.1 °C 8 °C 1022.7 hPa WNW 1.4 km/h 12.9 km/h 43% 0.0 mm 352 W/m2
16:13 21.3 °C 8.2 °C 1022.7 hPa WNW 13 km/h 14.5 km/h 43% 0.0 mm 352 W/m2
16:19 21.7 °C 8.2 °C 1022.7 hPa WSW 1.4 km/h 6.4 km/h 42% 0.0 mm 884 W/m2
16:24 22 °C 7.8 °C 1022.7 hPa NW 1.4 km/h 6.4 km/h 40% 0.0 mm 684 W/m2
16:29 22.5 °C 8.2 °C 1022.7 hPa NW 3.2 km/h 4.8 km/h 40% 0.0 mm 891 W/m2
16:34 22.6 °C 7.9 °C 1022.7 hPa East 6.4 km/h 9.7 km/h 39% 0.0 mm 232 W/m2
16:39 22 °C 8.1 °C 1022.7 hPa NW 6.4 km/h 16.1 km/h 41% 0.0 mm 197 W/m2
16:44 21.7 °C 8.6 °C 1022.7 hPa WNW 3.2 km/h 4.8 km/h 43% 0.0 mm 239 W/m2
16:49 21.6 °C 8.1 °C 1022.7 hPa NNE 3.2 km/h 16.1 km/h 42% 0.0 mm 336 W/m2
16:54 21.9 °C 8.4 °C 1022.7 hPa NE 3.2 km/h 6.4 km/h 42% 0.0 mm 902 W/m2
16:59 22.3 °C 8.4 °C 1023.0 hPa NNW 6.4 km/h 14.5 km/h 41% 0.0 mm 260 W/m2
17:04 22.2 °C 8.3 °C 1023.0 hPa West 3.2 km/h 9.7 km/h 41% 0.0 mm 225 W/m2
17:09 21.8 °C 7.6 °C 1022.7 hPa NNW 3.2 km/h 6.4 km/h 40% 0.0 mm 218 W/m2
17:14 21.8 °C 7.2 °C 1022.7 hPa North 4.7 km/h 16.1 km/h 39% 0.0 mm 290 W/m2
17:19 21.9 °C 6.9 °C 1022.7 hPa WNW 6.4 km/h 12.9 km/h 38% 0.0 mm 283 W/m2
17:24 21.9 °C 6.9 °C 1022.7 hPa West 3.2 km/h 6.4 km/h 38% 0.0 mm 197 W/m2
17:29 21.8 °C 6.8 °C 1022.7 hPa ESE 1.4 km/h 14.5 km/h 38% 0.0 mm 176 W/m2
17:34 21.9 °C 7.3 °C 1022.7 hPa ENE 1.4 km/h 6.4 km/h 39% 0.0 mm 536 W/m2
17:39 21.9 °C 6.5 °C 1022.7 hPa WNW 3.2 km/h 14.5 km/h 37% 0.0 mm 146 W/m2
17:44 21.9 °C 7.3 °C 1022.7 hPa WNW 3.2 km/h 4.8 km/h 39% 0.0 mm 654 W/m2
17:49 21.9 °C 6.9 °C 1022.7 hPa WNW 3.2 km/h 6.4 km/h 38% 0.0 mm 121 W/m2
17:54 21.8 °C 7.6 °C 1022.7 hPa NW 3.2 km/h 4.8 km/h 40% 0.0 mm 134 W/m2
17:59 21.6 °C 7.4 °C 1022.7 hPa WNW 6.4 km/h 6.4 km/h 40% 0.0 mm 79 W/m2
18:04 21.3 °C 7.9 °C 1022.7 hPa NNW 7.9 km/h 8 km/h 42% 0.0 mm 90 W/m2
18:09 21.2 °C 7.4 °C 1022.7 hPa WNW 6.4 km/h 12.9 km/h 41% 0.0 mm 113 W/m2
18:14 21.2 °C 7.4 °C 1022.7 hPa WNW 3.2 km/h 6.4 km/h 41% 0.0 mm 116 W/m2
18:19 21.2 °C 7.4 °C 1022.7 hPa NW 3.2 km/h 4.8 km/h 41% 0.0 mm 98 W/m2
18:24 21.1 °C 7.7 °C 1022.7 hPa West 4.7 km/h 4.8 km/h 42% 0.0 mm 114 W/m2
18:29 21.2 °C 7.8 °C 1022.7 hPa NNW 3.2 km/h 8 km/h 42% 0.0 mm 114 W/m2
18:34 21.6 °C 7.4 °C 1022.7 hPa WSW 3.2 km/h 4.8 km/h 40% 0.0 mm 408 W/m2
18:39 22 °C 7.4 °C 1022.7 hPa West 1.4 km/h 8 km/h 39% 0.0 mm 374 W/m2
18:44 22.3 °C 7.7 °C 1022.7 hPa East 3.2 km/h 4.8 km/h 39% 0.0 mm 338 W/m2
18:49 22.5 °C 7.9 °C 1022.7 hPa West 9.7 km/h 9.7 km/h 39% 0.0 mm 325 W/m2
18:54 22.7 °C 7.6 °C 1022.7 hPa NNW 3.2 km/h 6.4 km/h 38% 0.0 mm 316 W/m2
18:59 22.8 °C 7.7 °C 1022.7 hPa WNW 4.7 km/h 8 km/h 38% 0.0 mm 290 W/m2
19:04 22.5 °C 7.1 °C 1022.7 hPa West 4.7 km/h 6.4 km/h 37% 0.0 mm 190 W/m2
19:09 22 °C 6.6 °C 1022.7 hPa West 9.7 km/h 11.3 km/h 37% 0.0 mm 63 W/m2
19:14 21.6 °C 6.7 °C 1022.7 hPa WNW 4.7 km/h 4.8 km/h 38% 0.0 mm 214 W/m2
19:19 21.4 °C 6.5 °C 1022.7 hPa WNW 4.7 km/h 6.4 km/h 38% 0.0 mm 46 W/m2
19:24 21.5 °C 6.6 °C 1022.7 hPa NNW 3.2 km/h 3.2 km/h 38% 0.0 mm 299 W/m2
19:29 21.9 °C 6.9 °C 1023.0 hPa North 4.7 km/h 6.4 km/h 38% 0.0 mm 294 W/m2
19:34 22.3 °C 7.3 °C 1022.7 hPa West 1.4 km/h 3.2 km/h 38% 0.0 mm 276 W/m2
19:39 22.6 °C 7.2 °C 1022.7 hPa Calm   4.8 km/h 37% 0.0 mm 260 W/m2
19:44 22.8 °C 7.7 °C 1022.7 hPa West 3.2 km/h 4.8 km/h 38% 0.0 mm 236 W/m2
19:49 22.8 °C 7.3 °C 1023.0 hPa North 1.4 km/h 8 km/h 37% 0.0 mm 192 W/m2
19:54 22.7 °C 7.3 °C 1023.0 hPa WSW 6.4 km/h 9.7 km/h 37% 0.0 mm 167 W/m2
19:59 22.3 °C 7.3 °C 1023.0 hPa WNW 4.7 km/h 8 km/h 38% 0.0 mm 160 W/m2
20:04 22 °C 7.4 °C 1023.0 hPa WNW 4.7 km/h 8 km/h 39% 0.0 mm 158 W/m2
20:09 21.8 °C 7.6 °C 1023.0 hPa West 1.4 km/h 11.3 km/h 40% 0.0 mm 155 W/m2
20:14 21.8 °C 7.2 °C 1023.0 hPa NW 1.4 km/h 6.4 km/h 39% 0.0 mm 139 W/m2
20:19 21.8 °C 7.2 °C 1023.0 hPa NW 3.2 km/h 11.3 km/h 39% 0.0 mm 128 W/m2
20:24 21.8 °C 7.6 °C 1023.0 hPa WNW 3.2 km/h 6.4 km/h 40% 0.0 mm 116 W/m2
20:29 21.8 °C 7.6 °C 1023.0 hPa NNW 7.9 km/h 9.7 km/h 40% 0.0 mm 104 W/m2
20:34 21.7 °C 7.9 °C 1023.0 hPa North 3.2 km/h 9.7 km/h 41% 0.0 mm 91 W/m2
20:39 21.6 °C 7.8 °C 1023.0 hPa NNE 6.4 km/h 8 km/h 41% 0.0 mm 77 W/m2
20:44 21.4 °C 8 °C 1023.0 hPa NW 1.4 km/h 9.7 km/h 42% 0.0 mm 63 W/m2
20:49 21.3 °C 7.9 °C 1023.0 hPa Calm     42% 0.0 mm 56 W/m2
20:54 21.2 °C 8.1 °C 1023.0 hPa NNW 1.4 km/h 3.2 km/h 43% 0.0 mm 49 W/m2
20:59 21 °C 7.6 °C 1023.0 hPa NNW 4.7 km/h 4.8 km/h 42% 0.0 mm 42 W/m2
21:04 20.9 °C 7.9 °C 1023.4 hPa NNW 6.4 km/h 6.4 km/h 43% 0.0 mm 35 W/m2
21:09 20.8 °C 8.1 °C 1023.4 hPa Calm   3.2 km/h 44% 0.0 mm 28 W/m2
21:14 20.7 °C 8 °C 1023.4 hPa NW 1.4 km/h 3.2 km/h 44% 0.0 mm 23 W/m2
21:19 20.3 °C 8 °C 1023.4 hPa WNW 1.4 km/h 3.2 km/h 45% 0.0 mm 14 W/m2
21:29 19.6 °C 8 °C 1023.4 hPa WSW 1.4 km/h 3.2 km/h 47% 0.0 mm 9 W/m2
21:34 19.2 °C 7.9 °C 1023.4 hPa West 1.4 km/h 3.2 km/h 48% 0.0 mm 7 W/m2
21:39 18.9 °C 8.2 °C 1023.4 hPa Calm   1.6 km/h 50% 0.0 mm 5 W/m2
21:44 18.6 °C 8.3 °C 1023.4 hPa Calm   1.6 km/h 51% 0.0 mm 0 W/m2
21:49 18.3 °C 8.3 °C 1023.4 hPa Calm     52% 0.0 mm 0 W/m2
21:54 18 °C 8.3 °C 1023.4 hPa Calm   1.6 km/h 53% 0.0 mm 0 W/m2
21:59 17.8 °C 8.1 °C 1023.4 hPa Calm     53% 0.0 mm 0 W/m2
22:04 17.5 °C 7.8 °C 1023.4 hPa WSW 3.2 km/h 3.2 km/h 53% 0.0 mm 0 W/m2
22:09 17.3 °C 7.9 °C 1023.4 hPa Calm   3.2 km/h 54% 0.0 mm 0 W/m2
22:15 17.2 °C 7.8 °C 1023.4 hPa WSW 1.4 km/h 4.8 km/h 54% 0.0 mm 0 W/m2
22:20 17 °C 7.9 °C 1023.7 hPa Calm     55% 0.0 mm 0 W/m2
22:25 16.9 °C 7.8 °C 1023.7 hPa Calm   4.8 km/h 55% 0.0 mm 0 W/m2
22:30 16.8 °C 7.7 °C 1023.7 hPa NW 1.4 km/h 3.2 km/h 55% 0.0 mm 0 W/m2
22:35 16.7 °C 7.9 °C 1023.7 hPa NNE 1.4 km/h 1.6 km/h 56% 0.0 mm 0 W/m2
22:40 16.6 °C 8 °C 1023.7 hPa Calm   1.6 km/h 57% 0.0 mm 0 W/m2
22:45 16.5 °C 8 °C 1024.0 hPa West 1.4 km/h 4.8 km/h 57% 0.0 mm 0 W/m2
22:50 16.4 °C 7.9 °C 1024.0 hPa Calm   1.6 km/h 57% 0.0 mm 0 W/m2
22:55 16.4 °C 8.4 °C 1024.0 hPa West 3.2 km/h 4.8 km/h 59% 0.0 mm 0 W/m2
23:00 16.6 °C 8.6 °C 1024.0 hPa WNW 1.4 km/h 3.2 km/h 59% 0.0 mm 0 W/m2
23:05 16.7 °C 8.9 °C 1024.0 hPa WNW 3.2 km/h 4.8 km/h 60% 0.0 mm 0 W/m2
23:10 16.7 °C 8.9 °C 1024.0 hPa WNW 1.4 km/h 3.2 km/h 60% 0.0 mm 0 W/m2
23:15 16.6 °C 9 °C 1024.0 hPa WNW 1.4 km/h 3.2 km/h 61% 0.0 mm 0 W/m2
23:20 16.4 °C 9.1 °C 1024.0 hPa NNW 1.4 km/h 8 km/h 62% 0.0 mm 0 W/m2
23:25 16.4 °C 9.1 °C 1024.0 hPa WNW 3.2 km/h 6.4 km/h 62% 0.0 mm 0 W/m2
23:30 16.6 °C 9 °C 1024.0 hPa NNW 3.2 km/h 4.8 km/h 61% 0.0 mm 0 W/m2
23:35 16.7 °C 9.1 °C 1024.0 hPa WNW 3.2 km/h 6.4 km/h 61% 0.0 mm 0 W/m2
23:40 16.8 °C 9.2 °C 1024.0 hPa West 1.4 km/h 6.4 km/h 61% 0.0 mm 0 W/m2
23:45 16.8 °C 9.2 °C 1024.0 hPa NW 3.2 km/h 6.4 km/h 61% 0.0 mm 0 W/m2
23:50 16.7 °C 9.4 °C 1024.0 hPa NW 6.4 km/h 8 km/h 62% 0.0 mm 0 W/m2
23:55 16.7 °C 9.4 °C 1024.0 hPa West 3.2 km/h 6.4 km/h 62% 0.0 mm 0 W/m2
Juneau County Weather
Compliments of Weather Underground - 4 mb